Time;durP1;ratioP1;P1;durP2;ratioP2;P2;SDS_P1;SDS_P2;PMS_P1;PMS_P2;Temp;Humidity;BMP_temperature;BMP_pressure;BME280_temperature;BME280_humidity;BME280_pressure;Samples;Min_cycle;Max_cycle;Signal;HPM_P1;HPM_P2
2022/05/16 00:00:52;;;;;;;2.30;2.10;;;22.80;60.30;;;;;;4976104;28;20126;-17
2022/05/16 00:03:17;;;;;;;2.08;1.88;;;22.80;60.40;;;;;;4976773;28;20158;-17
2022/05/16 00:05:43;;;;;;;1.80;1.70;;;22.80;60.40;;;;;;4973007;28;20049;-17
2022/05/16 00:08:09;;;;;;;1.95;1.80;;;22.80;60.10;;;;;;4957677;28;20050;-16
2022/05/16 00:10:34;;;;;;;1.73;1.63;;;22.80;60.30;;;;;;4955769;28;20043;-18
2022/05/16 00:13:01;;;;;;;1.90;1.80;;;22.80;60.50;;;;;;4975682;28;20046;-15
2022/05/16 00:15:27;;;;;;;2.35;1.98;;;22.70;60.40;;;;;;4975112;28;20043;-16
2022/05/16 00:17:53;;;;;;;2.08;1.90;;;22.80;60.30;;;;;;4939684;28;20047;-16
2022/05/16 00:20:19;;;;;;;2.20;2.00;;;22.70;60.20;;;;;;4965548;28;20139;-16
2022/05/16 00:22:44;;;;;;;2.08;1.90;;;22.70;60.20;;;;;;4974090;28;20190;-16
2022/05/16 00:25:12;;;;;;;1.80;1.70;;;22.80;60.90;;;;;;4976554;28;20038;-16
2022/05/16 00:27:38;;;;;;;2.20;2.10;;;22.70;60.20;;;;;;4976132;28;20091;-16
2022/05/16 00:30:05;;;;;;;1.83;1.73;;;22.70;60.10;;;;;;4975446;28;20082;-16
2022/05/16 00:32:31;;;;;;;1.80;1.70;;;22.70;60.00;;;;;;4974718;28;20440;-16
2022/05/16 00:34:56;;;;;;;1.88;1.77;;;22.70;60.00;;;;;;4975339;28;21966;-16
2022/05/16 00:37:22;;;;;;;1.98;1.88;;;22.70;60.00;;;;;;4975204;28;20077;-18
2022/05/16 00:39:47;;;;;;;1.70;1.60;;;22.70;60.00;;;;;;4975791;28;20081;-16
2022/05/16 00:42:13;;;;;;;4.53;1.55;;;22.80;60.10;;;;;;4974997;28;20110;-15
2022/05/16 00:44:39;;;;;;;1.85;1.70;;;22.70;60.10;;;;;;4975972;28;20047;-16
2022/05/16 00:47:05;;;;;;;2.00;1.90;;;22.70;60.20;;;;;;4975142;28;20133;-17
2022/05/16 00:49:35;;;;;;;2.00;1.90;;;22.70;60.20;;;;;;4976246;28;20046;-16
2022/05/16 00:52:14;;;;;;;1.90;1.80;;;22.70;60.10;;;;;;4960275;28;20047;-15
2022/05/16 00:54:43;;;;;;;1.73;1.63;;;22.70;60.10;;;;;;4970136;28;20039;-16
2022/05/16 00:57:14;;;;;;;1.70;1.60;;;22.70;60.10;;;;;;4962822;28;20085;-16
2022/05/16 00:59:42;;;;;;;1.58;1.48;;;22.70;60.10;;;;;;4959808;28;20051;-16
2022/05/16 01:04:54;;;;;;;1.70;1.60;;;22.70;60.10;;;;;;4969047;28;20050;-16
2022/05/16 01:07:41;;;;;;;1.67;1.58;;;22.70;60.10;;;;;;4982841;28;20051;-16
2022/05/16 01:10:08;;;;;;;1.50;1.40;;;22.70;60.00;;;;;;4968330;28;20078;-17
2022/05/16 01:12:36;;;;;;;1.65;1.58;;;22.70;60.00;;;;;;4975380;28;20055;-16
2022/05/16 01:15:09;;;;;;;1.80;1.70;;;22.70;60.10;;;;;;4975055;28;20047;-16
2022/05/16 01:17:35;;;;;;;1.50;1.40;;;22.70;60.20;;;;;;4976114;28;20051;-16
2022/05/16 01:20:00;;;;;;;1.42;1.33;;;22.70;60.20;;;;;;4975696;28;20132;-15
2022/05/16 01:22:29;;;;;;;1.30;1.20;;;22.70;60.00;;;;;;4975345;28;20117;-16
2022/05/16 01:24:55;;;;;;;1.40;1.30;;;22.70;60.20;;;;;;4974968;28;20039;-16
2022/05/16 01:27:21;;;;;;;1.58;1.48;;;22.70;60.20;;;;;;4975035;28;20065;-16
2022/05/16 01:29:48;;;;;;;1.65;1.55;;;22.70;60.30;;;;;;4975376;28;20035;-16
2022/05/16 01:32:13;;;;;;;1.63;1.35;;;22.70;60.10;;;;;;4975837;28;20046;-16
2022/05/16 01:34:40;;;;;;;1.35;1.25;;;22.70;60.10;;;;;;4975846;28;20078;-16
2022/05/16 01:37:05;;;;;;;1.50;1.40;;;22.70;60.40;;;;;;4975367;28;20106;-16
2022/05/16 01:39:31;;;;;;;3.28;1.60;;;22.60;60.20;;;;;;4969153;28;20067;-15
2022/05/16 01:41:57;;;;;;;1.48;1.38;;;22.60;60.30;;;;;;4956013;28;20824;-16
2022/05/16 01:44:22;;;;;;;1.40;1.30;;;22.60;60.20;;;;;;4968592;28;20043;-16
2022/05/16 01:46:48;;;;;;;1.77;1.67;;;22.60;60.10;;;;;;4974145;28;20049;-16
2022/05/16 01:49:13;;;;;;;1.30;1.20;;;22.60;60.30;;;;;;4975249;28;20432;-16
2022/05/16 01:51:39;;;;;;;1.50;1.40;;;22.60;60.10;;;;;;4975915;28;20571;-16
2022/05/16 01:54:05;;;;;;;1.58;1.27;;;22.60;60.10;;;;;;4969722;28;20051;-17
2022/05/16 01:56:31;;;;;;;1.42;1.30;;;22.60;60.10;;;;;;4959705;28;20043;-15
2022/05/16 01:58:58;;;;;;;1.23;1.15;;;22.60;60.10;;;;;;4959374;28;20826;-15
2022/05/16 02:01:24;;;;;;;1.58;1.48;;;22.60;60.00;;;;;;4959694;28;20039;-17
2022/05/16 02:03:50;;;;;;;1.40;1.30;;;22.60;60.00;;;;;;4966151;28;20050;-15
2022/05/16 02:06:16;;;;;;;1.48;1.35;;;22.60;60.10;;;;;;4978663;28;20067;-15
2022/05/16 02:08:43;;;;;;;1.55;1.45;;;22.70;60.00;;;;;;4977085;28;20138;-17
2022/05/16 02:11:08;;;;;;;1.50;1.40;;;22.60;60.00;;;;;;4978048;28;20043;-16
2022/05/16 02:13:38;;;;;;;1.20;1.20;;;22.70;60.20;;;;;;4976637;28;20043;-15
2022/05/16 02:16:04;;;;;;;0.90;0.90;;;22.70;60.00;;;;;;4978189;28;20047;-15
2022/05/16 02:18:29;;;;;;;1.30;1.20;;;22.60;60.10;;;;;;4977695;28;20043;-16
2022/05/16 02:24:38;;;;;;;1.33;1.17;;;22.60;60.00;;;;;;4977425;28;20054;-15
2022/05/16 02:26:24;;;;;;;1.10;1.10;;;22.60;60.00;;;;;;4977150;28;20645;-16
2022/05/16 02:28:50;;;;;;;1.23;1.20;;;22.60;60.00;;;;;;4977103;28;20074;-15
2022/05/16 02:31:16;;;;;;;1.40;1.30;;;22.60;60.10;;;;;;4974449;28;20039;-15
2022/05/16 02:33:41;;;;;;;1.27;1.17;;;22.60;60.10;;;;;;4975711;28;20071;-15
2022/05/16 02:36:07;;;;;;;1.08;0.98;;;22.60;60.00;;;;;;4977962;28;20043;-16
2022/05/16 02:38:32;;;;;;;1.60;1.50;;;22.60;60.10;;;;;;4977850;28;20073;-15
2022/05/16 02:40:58;;;;;;;1.92;1.30;;;22.60;60.00;;;;;;4976487;28;20042;-16
2022/05/16 02:43:24;;;;;;;1.08;1.08;;;22.60;60.10;;;;;;4978240;28;20043;-16
2022/05/16 02:45:50;;;;;;;0.93;0.93;;;22.60;60.10;;;;;;4977049;28;20031;-16
2022/05/16 02:48:16;;;;;;;1.30;1.20;;;22.60;60.20;;;;;;4978470;28;20101;-15
2022/05/16 02:50:41;;;;;;;1.50;1.40;;;22.60;60.10;;;;;;4973035;28;20047;-15
2022/05/16 02:53:07;;;;;;;1.30;1.20;;;22.60;60.10;;;;;;4958199;28;20054;-15
2022/05/16 02:55:33;;;;;;;0.90;0.90;;;22.60;60.10;;;;;;4961435;28;20115;-15
2022/05/16 02:57:59;;;;;;;2.00;1.30;;;22.60;60.10;;;;;;4976326;28;20057;-14
2022/05/16 03:00:24;;;;;;;0.88;0.88;;;22.60;60.10;;;;;;4977236;28;20397;-15
2022/05/16 03:02:50;;;;;;;1.00;1.00;;;22.60;60.10;;;;;;4976037;28;20070;-15
2022/05/16 03:05:16;;;;;;;1.23;1.20;;;22.60;60.10;;;;;;4977761;28;20134;-16
2022/05/16 03:07:41;;;;;;;1.20;1.10;;;22.60;60.10;;;;;;4960920;28;20051;-15
2022/05/16 03:10:08;;;;;;;0.90;0.90;;;22.60;60.00;;;;;;4957949;28;20051;-14
2022/05/16 03:12:34;;;;;;;1.02;1.02;;;22.60;60.10;;;;;;5008405;28;20122;-16
2022/05/16 03:15:00;;;;;;;1.58;1.27;;;22.50;60.00;;;;;;4962527;28;20049;-15
2022/05/16 03:17:26;;;;;;;0.88;0.88;;;22.50;60.10;;;;;;4977132;28;20046;-15
2022/05/16 03:19:51;;;;;;;1.30;1.20;;;22.50;60.10;;;;;;4976530;28;20101;-16
2022/05/16 03:22:17;;;;;;;1.40;1.30;;;22.50;60.10;;;;;;4977494;28;20108;-15
2022/05/16 03:24:43;;;;;;;1.25;1.20;;;22.50;60.20;;;;;;4977695;28;20047;-14
2022/05/16 03:27:09;;;;;;;1.95;1.23;;;22.50;60.20;;;;;;4976782;28;20059;-16
2022/05/16 03:29:35;;;;;;;2.40;0.90;;;22.50;60.10;;;;;;4976951;28;20511;-16
2022/05/16 03:32:01;;;;;;;1.08;1.08;;;22.50;60.10;;;;;;4976996;28;20451;-16
2022/05/16 03:34:26;;;;;;;0.80;0.80;;;22.50;60.10;;;;;;4977230;28;20062;-16
2022/05/16 03:36:52;;;;;;;1.10;0.90;;;22.50;60.10;;;;;;4976017;28;20102;-15
2022/05/16 03:42:02;;;;;;;0.90;0.90;;;22.50;60.10;;;;;;4976890;28;20073;-15
2022/05/16 03:44:27;;;;;;;1.20;1.00;;;22.50;60.10;;;;;;4975446;28;20043;-15
2022/05/16 03:46:53;;;;;;;1.00;0.90;;;22.50;60.10;;;;;;4963988;28;20451;-15
2022/05/16 03:49:19;;;;;;;0.90;0.82;;;22.50;60.10;;;;;;4966243;28;20051;-16
2022/05/16 03:51:44;;;;;;;2.88;1.13;;;22.50;60.10;;;;;;4976890;28;20097;-15
2022/05/16 03:54:10;;;;;;;1.10;1.00;;;22.50;60.10;;;;;;4975082;28;20050;-16
2022/05/16 03:56:36;;;;;;;1.17;1.08;;;22.50;60.30;;;;;;4977182;28;20081;-16
2022/05/16 03:59:01;;;;;;;1.10;1.00;;;22.50;60.30;;;;;;4976526;28;20044;-15
2022/05/16 04:01:27;;;;;;;1.30;1.20;;;22.50;60.20;;;;;;4974985;28;20039;-16
2022/05/16 04:03:53;;;;;;;1.60;0.90;;;22.50;60.20;;;;;;4976149;28;20051;-15
2022/05/16 04:06:19;;;;;;;1.95;0.90;;;22.50;60.10;;;;;;4976989;28;20508;-14
2022/05/16 04:08:45;;;;;;;0.98;0.93;;;22.50;60.20;;;;;;4976838;28;20106;-17
2022/05/16 04:11:12;;;;;;;1.00;1.00;;;22.50;60.20;;;;;;4975402;28;20058;-15
2022/05/16 04:13:37;;;;;;;1.45;1.30;;;22.50;60.10;;;;;;4976033;28;20070;-15
2022/05/16 04:16:03;;;;;;;1.05;1.00;;;22.50;60.10;;;;;;4975560;28;20035;-16
2022/05/16 04:18:29;;;;;;;1.58;1.48;;;22.50;60.10;;;;;;4975637;28;20050;-15
2022/05/16 04:20:55;;;;;;;0.80;0.80;;;22.50;60.20;;;;;;4976213;28;20085;-15
2022/05/16 04:23:20;;;;;;;1.02;0.93;;;22.50;60.20;;;;;;4975455;28;20047;-15
2022/05/16 04:25:46;;;;;;;1.58;1.48;;;22.50;60.20;;;;;;4976534;28;20127;-15
2022/05/16 04:28:12;;;;;;;1.00;1.00;;;22.50;60.10;;;;;;4976056;28;20058;-15
2022/05/16 04:30:38;;;;;;;1.30;1.20;;;22.50;60.20;;;;;;4975263;28;20038;-15
2022/05/16 04:33:04;;;;;;;1.23;1.13;;;22.50;60.20;;;;;;4975028;28;20503;-15
2022/05/16 04:35:29;;;;;;;1.08;0.85;;;22.50;60.20;;;;;;4976558;28;20046;-15
2022/05/16 04:37:55;;;;;;;1.02;0.93;;;22.40;60.30;;;;;;4974955;28;20089;-15
2022/05/16 04:40:21;;;;;;;1.15;1.05;;;22.40;60.20;;;;;;4976432;28;20043;-15
2022/05/16 04:42:46;;;;;;;1.67;1.00;;;22.40;60.30;;;;;;4979610;28;20109;-15
2022/05/16 04:45:20;;;;;;;2.28;1.30;;;22.50;60.30;;;;;;4974058;28;20073;-16
2022/05/16 04:47:47;;;;;;;;;;;21.90;61.40;;;;;;4956294;28;20138;-15
2022/05/16 04:50:15;;;;;;;2.78;1.20;;;21.60;63.20;;;;;;4634097;28;10000159;-15
2022/05/16 04:52:41;;;;;;;2.97;1.85;;;21.60;63.20;;;;;;4967744;28;20047;-16
2022/05/16 04:55:07;;;;;;;4.38;2.00;;;21.40;63.40;;;;;;4977536;28;20046;-16
2022/05/16 04:57:32;;;;;;;2.28;1.50;;;21.10;65.00;;;;;;4971298;28;20050;-15
2022/05/16 04:59:58;;;;;;;3.90;1.90;;;21.00;65.50;;;;;;4971777;28;20053;-16
2022/05/16 05:02:24;;;;;;;3.28;1.65;;;21.10;65.00;;;;;;4982080;28;20123;-15
2022/05/16 05:04:49;;;;;;;3.50;2.10;;;20.90;66.10;;;;;;4974542;28;20500;-15
2022/05/16 05:07:15;;;;;;;4.13;2.00;;;20.60;66.70;;;;;;4967799;28;20051;-16
2022/05/16 05:15:11;;;;;;;;;;;21.00;66.60;;;;;;4971981;28;20197;-15
2022/05/16 05:17:37;;;;;;;4.28;1.58;;;20.70;66.90;;;;;;4971667;28;19921;-15
2022/05/16 05:20:03;;;;;;;3.60;1.60;;;20.70;66.80;;;;;;4970637;28;20038;-15
2022/05/16 05:22:29;;;;;;;4.60;1.98;;;20.70;67.10;;;;;;4970478;28;20059;-15
2022/05/16 05:24:54;;;;;;;5.70;1.70;;;20.50;67.80;;;;;;4971342;28;20073;-16
2022/05/16 05:27:20;;;;;;;5.20;1.50;;;20.70;67.10;;;;;;4969955;28;20157;-15
2022/05/16 05:29:48;;;;;;;2.60;1.52;;;20.80;66.80;;;;;;4973983;28;20057;-16
2022/05/16 05:32:14;;;;;;;3.78;1.58;;;20.50;67.90;;;;;;4973626;28;20113;-15
2022/05/16 05:34:40;;;;;;;3.65;1.48;;;20.50;67.80;;;;;;4966865;28;20127;-15
2022/05/16 05:37:06;;;;;;;3.85;1.50;;;20.30;68.40;;;;;;4973984;28;20057;-17
2022/05/16 05:39:31;;;;;;;3.97;1.70;;;20.30;68.90;;;;;;4973128;28;20058;-16
2022/05/16 05:41:58;;;;;;;3.80;1.60;;;20.40;68.60;;;;;;4976878;28;20047;-16
2022/05/16 05:44:24;;;;;;;4.63;1.70;;;20.40;68.90;;;;;;4975336;28;20081;-16
2022/05/16 05:46:49;;;;;;;5.28;2.00;;;20.20;69.40;;;;;;4981928;28;20046;-17
2022/05/16 05:49:15;;;;;;;2.97;1.38;;;20.40;68.80;;;;;;4972939;28;20035;-16
2022/05/16 05:51:41;;;;;;;3.65;2.30;;;20.40;68.80;;;;;;4973975;28;20047;-16
2022/05/16 05:54:07;;;;;;;4.90;1.77;;;20.40;68.60;;;;;;4976499;28;20225;-17
2022/05/16 05:56:33;;;;;;;7.05;2.17;;;20.30;68.90;;;;;;4978847;28;20046;-16
2022/05/16 05:58:58;;;;;;;4.10;1.60;;;20.10;70.00;;;;;;4977272;28;20053;-18
2022/05/16 06:01:25;;;;;;;3.03;1.80;;;20.10;69.60;;;;;;4978278;28;20110;-17
2022/05/16 06:03:50;;;;;;;4.13;1.67;;;20.00;70.00;;;;;;4977299;28;20053;-16
2022/05/16 06:06:16;;;;;;;3.28;1.73;;;20.10;69.90;;;;;;4972503;28;20046;-16
2022/05/16 06:08:42;;;;;;;6.28;1.95;;;20.10;69.60;;;;;;4976847;28;20054;-15
2022/05/16 06:11:07;;;;;;;3.03;1.50;;;20.30;69.40;;;;;;4631598;28;10000216;-16
2022/05/16 06:13:33;;;;;;;3.67;1.30;;;20.50;68.50;;;;;;4973474;28;20057;-16
2022/05/16 06:15:59;;;;;;;4.88;1.52;;;20.70;67.40;;;;;;4974729;28;20535;-19
2022/05/16 06:18:24;;;;;;;3.50;1.25;;;20.80;66.70;;;;;;4967470;28;20916;-18
2022/05/16 06:20:50;;;;;;;3.80;1.55;;;20.90;66.50;;;;;;4974963;28;20054;-18
2022/05/16 06:23:15;;;;;;;3.75;1.38;;;21.00;66.30;;;;;;4973762;28;20050;-15
2022/05/16 06:25:44;;;;;;;6.85;1.50;;;21.00;66.30;;;;;;4975082;28;20051;-16
2022/05/16 06:28:15;;;;;;;6.72;3.10;;;21.00;66.10;;;;;;4974907;28;20047;-16
2022/05/16 06:30:43;;;;;;;7.57;2.92;;;21.00;66.20;;;;;;4974433;28;20058;-17
2022/05/16 06:33:08;;;;;;;13.23;3.47;;;21.10;66.50;;;;;;4974162;28;20061;-15
2022/05/16 06:35:34;;;;;;;8.70;3.10;;;21.10;66.60;;;;;;4974453;28;20504;-16
2022/05/16 06:38:11;;;;;;;6.57;2.50;;;21.10;66.20;;;;;;4974288;28;20051;-16
2022/05/16 06:40:38;;;;;;;9.80;2.85;;;21.20;65.70;;;;;;4973055;28;20046;-17
2022/05/16 06:43:04;;;;;;;6.47;2.40;;;21.20;66.20;;;;;;4963664;28;20708;-15
2022/05/16 06:45:30;;;;;;;4.35;2.10;;;21.20;65.80;;;;;;4974790;28;20047;-16
2022/05/16 06:47:55;;;;;;;4.75;2.28;;;21.30;65.60;;;;;;4973904;28;20053;-16
2022/05/16 06:50:21;;;;;;;2.72;1.77;;;21.20;65.70;;;;;;4973008;28;20057;-16
2022/05/16 06:52:47;;;;;;;4.22;1.95;;;21.30;65.50;;;;;;4968622;28;20075;-15
2022/05/16 06:55:13;;;;;;;1.95;1.60;;;21.30;65.30;;;;;;4971070;28;20512;-16
2022/05/16 06:57:39;;;;;;;4.55;1.65;;;21.30;64.80;;;;;;4971365;28;20700;-16
2022/05/16 07:00:06;;;;;;;5.13;2.22;;;21.30;64.50;;;;;;4976196;28;20047;-15
2022/05/16 07:02:32;;;;;;;8.25;1.98;;;21.40;64.60;;;;;;4977855;28;20043;-15
2022/05/16 07:04:58;;;;;;;3.30;1.65;;;21.40;64.50;;;;;;4972204;28;20043;-16
2022/05/16 07:07:24;;;;;;;4.05;1.75;;;21.40;64.50;;;;;;4976568;28;20057;-16
2022/05/16 07:09:49;;;;;;;4.55;1.95;;;21.40;64.30;;;;;;4958873;28;20063;-16
2022/05/16 07:12:15;;;;;;;2.30;1.50;;;21.40;64.30;;;;;;4957441;28;20043;-15
2022/05/16 07:14:41;;;;;;;3.63;1.90;;;21.40;64.30;;;;;;4959158;28;20043;-16
2022/05/16 07:17:06;;;;;;;3.58;1.70;;;21.40;64.30;;;;;;4976023;28;20508;-16
2022/05/16 07:19:34;;;;;;;3.42;1.73;;;21.30;64.20;;;;;;4977656;28;20047;-16
2022/05/16 07:22:04;;;;;;;4.95;1.30;;;21.40;64.20;;;;;;4962335;28;20363;-15
2022/05/16 07:24:30;;;;;;;4.13;1.50;;;21.40;64.10;;;;;;4972622;28;20050;-16
2022/05/16 07:29:40;;;;;;;3.88;1.67;;;21.40;63.70;;;;;;4970951;28;20050;-16
2022/05/16 07:32:08;;;;;;;3.25;1.35;;;21.50;63.60;;;;;;4975060;28;20047;-16
2022/05/16 07:34:34;;;;;;;3.08;1.60;;;21.50;63.60;;;;;;4975899;28;20052;-14
2022/05/16 07:37:00;;;;;;;3.20;1.30;;;21.50;63.40;;;;;;4976424;28;20054;-15
2022/05/16 07:39:26;;;;;;;6.22;1.40;;;21.50;63.40;;;;;;4976722;28;20043;-16
2022/05/16 07:41:54;;;;;;;1.70;1.25;;;21.50;63.40;;;;;;4977278;28;20054;-15
2022/05/16 07:44:20;;;;;;;1.95;1.60;;;21.60;63.20;;;;;;4976897;28;20039;-16
2022/05/16 07:46:45;;;;;;;1.73;1.23;;;21.50;63.20;;;;;;4976452;28;20050;-16
2022/05/16 07:49:13;;;;;;;1.50;1.00;;;21.50;63.10;;;;;;4976794;28;20605;-16
2022/05/16 07:51:39;;;;;;;2.00;1.10;;;21.60;63.20;;;;;;4964245;28;20051;-16
2022/05/16 07:54:05;;;;;;;2.85;1.50;;;21.50;63.00;;;;;;4957354;28;20492;-15
2022/05/16 07:56:32;;;;;;;2.75;1.52;;;21.60;63.20;;;;;;4972210;28;20047;-16
2022/05/16 07:58:58;;;;;;;3.03;1.50;;;21.60;62.90;;;;;;4976515;28;20133;-15
2022/05/16 08:01:24;;;;;;;2.88;1.30;;;21.60;63.00;;;;;;4976531;28;20074;-16
2022/05/16 08:03:49;;;;;;;3.83;1.30;;;21.60;62.90;;;;;;4976999;28;20050;-16
2022/05/16 08:06:15;;;;;;;1.98;1.10;;;21.60;62.90;;;;;;4964177;28;20057;-16
2022/05/16 08:11:25;;;;;;;;;;;21.60;62.80;;;;;;4966679;28;20583;-16
2022/05/16 08:13:50;;;;;;;2.83;0.90;;;21.60;62.80;;;;;;4991903;28;20367;-16
2022/05/16 08:16:16;;;;;;;2.08;1.40;;;21.60;62.80;;;;;;4973808;28;20039;-16
2022/05/16 08:18:42;;;;;;;2.70;1.20;;;21.60;62.80;;;;;;4967625;28;20054;-15
2022/05/16 08:21:10;;;;;;;2.83;1.25;;;21.60;62.80;;;;;;4976254;28;20461;-17
2022/05/16 08:23:35;;;;;;;3.10;1.45;;;21.60;62.60;;;;;;4976419;28;20051;-16
2022/05/16 08:26:04;;;;;;;1.73;1.00;;;21.60;62.60;;;;;;4974883;28;20047;-16
2022/05/16 08:28:32;;;;;;;1.50;0.88;;;21.70;62.60;;;;;;4956717;28;20106;-16
2022/05/16 08:30:58;;;;;;;1.83;0.98;;;21.70;62.60;;;;;;4956076;28;20039;-16
2022/05/16 08:33:23;;;;;;;1.58;1.08;;;21.60;62.50;;;;;;4956890;28;20046;-16
2022/05/16 08:39:52;;;;;;;1.50;1.00;;;21.60;62.50;;;;;;4966964;28;20046;-16
2022/05/16 08:41:24;;;;;;;1.73;0.90;;;21.70;62.40;;;;;;4956829;28;20051;-16
2022/05/16 08:44:03;;;;;;;1.63;0.98;;;21.70;62.40;;;;;;4956165;28;20119;-16
2022/05/16 08:46:46;;;;;;;1.67;1.08;;;21.70;62.30;;;;;;4969847;28;20062;-15
2022/05/16 08:49:34;;;;;;;1.65;1.02;;;21.70;62.30;;;;;;4975834;28;20102;-16
2022/05/16 08:52:10;;;;;;;1.83;1.25;;;21.70;62.30;;;;;;4960769;28;20130;-15
2022/05/16 08:54:40;;;;;;;1.38;0.90;;;21.70;62.40;;;;;;4959983;28;20043;-16
2022/05/16 08:57:07;;;;;;;1.90;0.98;;;21.70;62.30;;;;;;4976378;28;20115;-16
2022/05/16 08:59:34;;;;;;;1.25;1.00;;;21.70;62.20;;;;;;4974726;28;20039;-16
2022/05/16 09:02:20;;;;;;;1.55;0.98;;;21.70;62.20;;;;;;4968087;28;20055;-16
2022/05/16 09:04:48;;;;;;;1.73;0.90;;;21.70;62.20;;;;;;4961762;28;20204;-17
2022/05/16 09:07:17;;;;;;;1.77;0.80;;;21.80;62.10;;;;;;4978228;28;20043;-16
2022/05/16 09:10:02;;;;;;;1.20;1.10;;;21.80;63.00;;;;;;4978436;28;20047;-15
2022/05/16 09:12:39;;;;;;;4.20;1.13;;;21.80;62.10;;;;;;4959082;28;20139;-15
2022/05/16 09:15:17;;;;;;;2.28;0.85;;;21.80;62.10;;;;;;4969463;28;20047;-15
2022/05/16 09:18:10;;;;;;;1.30;0.77;;;21.80;62.10;;;;;;4979560;28;20059;-16
2022/05/16 09:20:48;;;;;;;0.75;0.70;;;21.80;62.00;;;;;;4970502;28;20047;-16
2022/05/16 09:23:22;;;;;;;1.30;0.85;;;21.80;62.10;;;;;;4977971;28;20051;-16
2022/05/16 09:26:15;;;;;;;3.00;1.17;;;21.80;62.80;;;;;;4980704;28;20081;-16
2022/05/16 09:28:46;;;;;;;0.82;0.80;;;21.80;62.00;;;;;;4978121;28;20053;-16
2022/05/16 09:31:28;;;;;;;1.27;1.02;;;21.80;61.90;;;;;;4963291;28;20047;-17
2022/05/16 09:33:55;;;;;;;2.15;1.17;;;21.80;61.90;;;;;;4980491;28;20035;-17
2022/05/16 09:36:41;;;;;;;1.42;1.05;;;21.90;61.90;;;;;;4976904;28;20053;-16
2022/05/16 09:39:07;;;;;;;1.73;0.80;;;21.80;61.70;;;;;;4978731;28;20054;-16
2022/05/16 09:41:42;;;;;;;1.42;0.80;;;21.80;61.70;;;;;;4979244;28;20054;-15
2022/05/16 09:44:14;;;;;;;1.75;1.10;;;21.90;61.80;;;;;;4978603;28;20042;-16
2022/05/16 09:46:42;;;;;;;1.08;0.50;;;21.80;61.80;;;;;;4978035;28;20047;-16
2022/05/16 09:49:34;;;;;;;0.60;0.60;;;21.80;61.70;;;;;;4978313;28;20519;-16
2022/05/16 09:51:59;;;;;;;0.80;0.80;;;21.90;61.50;;;;;;4978536;28;20039;-16
2022/05/16 09:54:26;;;;;;;1.42;0.80;;;21.90;61.60;;;;;;4977570;28;20039;-16
2022/05/16 09:57:01;;;;;;;2.92;0.77;;;21.90;61.60;;;;;;4974580;28;20102;-16
2022/05/16 09:59:42;;;;;;;1.15;0.73;;;22.00;61.40;;;;;;4977398;28;20381;-15
2022/05/16 10:02:20;;;;;;;1.05;0.85;;;22.00;61.10;;;;;;4978267;28;20050;-17
2022/05/16 10:04:47;;;;;;;3.08;1.20;;;22.00;61.10;;;;;;4978376;28;20039;-16
2022/05/16 10:07:12;;;;;;;4.32;0.80;;;22.00;61.30;;;;;;4978425;28;20055;-16
2022/05/16 10:09:49;;;;;;;2.95;1.00;;;22.00;61.10;;;;;;4988068;28;20075;-15
2022/05/16 10:12:17;;;;;;;1.42;0.70;;;22.00;61.00;;;;;;4972179;28;20149;-17
2022/05/16 10:14:43;;;;;;;0.60;0.50;;;22.00;60.80;;;;;;4975025;28;20043;-16
2022/05/16 10:17:10;;;;;;;0.75;0.68;;;22.00;60.70;;;;;;4961126;28;20054;-16
2022/05/16 10:19:36;;;;;;;0.98;0.70;;;22.00;60.50;;;;;;4977197;28;20047;-16
2022/05/16 10:22:04;;;;;;;1.55;0.60;;;22.00;60.50;;;;;;4977558;28;20121;-18
2022/05/16 10:24:33;;;;;;;1.17;0.80;;;22.00;60.50;;;;;;4959750;28;20074;-16
2022/05/16 10:27:09;;;;;;;2.80;0.68;;;22.00;60.60;;;;;;4962474;28;20043;-16
2022/05/16 10:29:37;;;;;;;2.70;0.60;;;22.00;60.60;;;;;;4967700;28;20416;-16
2022/05/16 10:35:10;;;;;;;1.50;0.60;;;22.00;60.60;;;;;;4971245;28;20070;-16
2022/05/16 10:37:38;;;;;;;0.90;0.60;;;22.00;60.90;;;;;;4969387;28;20046;-16
2022/05/16 10:40:26;;;;;;;1.45;1.17;;;22.00;60.90;;;;;;4948163;28;20507;-16
2022/05/16 10:43:21;;;;;;;2.33;0.50;;;22.00;60.80;;;;;;4978108;28;20091;-16
2022/05/16 10:45:50;;;;;;;1.67;0.73;;;22.00;60.70;;;;;;4975637;28;20038;-15
2022/05/16 10:48:30;;;;;;;2.05;0.70;;;22.00;60.50;;;;;;4976491;28;20043;-17
2022/05/16 10:51:01;;;;;;;0.70;0.57;;;22.00;60.50;;;;;;4989866;28;20051;-17
2022/05/16 10:54:02;;;;;;;2.28;0.70;;;22.00;60.50;;;;;;4962464;28;20051;-15
2022/05/16 10:56:49;;;;;;;1.63;0.73;;;22.10;60.50;;;;;;4957471;28;20092;-16
2022/05/16 10:59:32;;;;;;;1.85;0.60;;;22.10;60.40;;;;;;4968253;28;20611;-16
2022/05/16 11:02:22;;;;;;;1.35;0.75;;;22.10;61.10;;;;;;4957169;28;20035;-17
2022/05/16 11:05:19;;;;;;;0.80;0.60;;;22.10;60.70;;;;;;4958239;28;20043;-16
2022/05/16 11:08:04;;;;;;;1.75;0.90;;;22.20;61.90;;;;;;4965360;28;20458;-16
2022/05/16 11:10:53;;;;;;;1.05;0.65;;;22.10;61.10;;;;;;4628145;28;10000788;-16
2022/05/16 11:13:27;;;;;;;2.30;0.70;;;22.10;60.70;;;;;;4987821;28;20047;-17
2022/05/16 11:15:57;;;;;;;0.90;0.70;;;22.10;60.90;;;;;;4973990;28;20050;-16
2022/05/16 11:19:05;;;;;;;0.80;0.65;;;22.10;61.10;;;;;;4968866;28;20089;-16
2022/05/16 11:21:57;;;;;;;2.17;1.48;;;22.10;61.40;;;;;;4968118;28;20098;-16
2022/05/16 11:24:29;;;;;;;2.08;1.50;;;22.10;61.90;;;;;;4972708;28;20101;-16
2022/05/16 11:27:26;;;;;;;1.88;1.58;;;22.10;61.70;;;;;;4973922;28;20551;-16
2022/05/16 11:29:51;;;;;;;3.80;2.28;;;22.10;62.40;;;;;;4961903;28;20086;-17
2022/05/16 11:32:30;;;;;;;3.85;2.20;;;22.10;62.40;;;;;;4965790;28;20058;-16
2022/05/16 11:34:56;;;;;;;2.33;2.13;;;22.10;62.20;;;;;;4967291;28;20046;-16
2022/05/16 11:37:41;;;;;;;4.35;2.88;;;22.20;62.30;;;;;;4976623;28;20061;-17
2022/05/16 11:40:26;;;;;;;3.67;2.95;;;22.10;62.30;;;;;;4974352;28;20046;-16
2022/05/16 11:42:59;;;;;;;3.40;3.10;;;22.10;62.80;;;;;;4941101;28;20047;-16
2022/05/16 11:45:33;;;;;;;4.25;3.63;;;22.10;62.10;;;;;;4973680;28;20046;-16
2022/05/16 11:48:23;;;;;;;5.07;3.10;;;22.20;62.30;;;;;;4964715;28;20122;-16
2022/05/16 11:51:11;;;;;;;3.15;2.80;;;22.20;62.30;;;;;;4959129;28;20050;-15
2022/05/16 11:53:47;;;;;;;4.50;3.28;;;22.20;62.10;;;;;;4974503;28;20106;-15
2022/05/16 12:02:15;;;;;;;3.95;3.25;;;22.30;61.70;;;;;;4973667;28;20102;-15
2022/05/16 12:04:44;;;;;;;5.10;3.42;;;22.20;61.90;;;;;;4975186;28;20059;-15
2022/05/16 12:07:20;;;;;;;3.50;3.20;;;22.20;62.00;;;;;;4965821;28;20047;-15
2022/05/16 12:09:55;;;;;;;4.57;3.78;;;22.20;61.90;;;;;;4971136;28;20047;-15
2022/05/16 12:12:40;;;;;;;5.05;4.00;;;22.30;61.90;;;;;;4973189;28;20045;-15
2022/05/16 12:15:29;;;;;;;5.75;3.60;;;22.20;62.00;;;;;;4974022;28;20141;-15
2022/05/16 12:17:54;;;;;;;4.72;4.25;;;22.20;62.10;;;;;;4959079;28;20046;-15
2022/05/16 12:20:42;;;;;;;5.38;4.03;;;22.30;61.90;;;;;;4977035;28;20118;-15
2022/05/16 12:23:08;;;;;;;3.60;3.28;;;22.30;61.80;;;;;;4975490;28;20448;-15
2022/05/16 12:25:35;;;;;;;4.15;3.83;;;22.30;62.30;;;;;;4971164;28;20082;-15
2022/05/16 12:28:13;;;;;;;5.20;3.10;;;22.30;62.00;;;;;;4973584;28;20046;-15
2022/05/16 12:30:55;;;;;;;3.65;3.35;;;22.30;62.10;;;;;;4973838;28;20054;-15
2022/05/16 12:33:41;;;;;;;5.57;3.10;;;22.30;61.70;;;;;;4976538;28;20289;-15
2022/05/16 12:36:14;;;;;;;5.50;3.40;;;22.40;61.90;;;;;;4976012;28;20050;-16
2022/05/16 12:38:41;;;;;;;3.33;3.13;;;22.40;61.90;;;;;;4958729;28;20509;-15
2022/05/16 12:41:51;;;;;;;5.53;3.55;;;22.40;61.70;;;;;;4955529;28;20047;-15
2022/05/16 12:44:41;;;;;;;4.25;3.85;;;22.40;61.60;;;;;;4950997;28;20066;-15
2022/05/16 12:47:13;;;;;;;3.17;2.97;;;22.40;61.60;;;;;;4960246;28;20047;-15
2022/05/16 12:49:50;;;;;;;4.15;3.38;;;22.40;61.60;;;;;;4973055;28;20035;-15
2022/05/16 12:52:30;;;;;;;3.58;3.28;;;22.40;61.90;;;;;;4976317;28;20407;-15
2022/05/16 12:55:11;;;;;;;4.72;3.38;;;22.30;61.90;;;;;;4973113;28;20035;-15
2022/05/16 12:58:10;;;;;;;4.15;3.75;;;22.40;61.80;;;;;;4970214;28;20105;-16
2022/05/16 13:00:51;;;;;;;3.38;3.13;;;22.30;61.80;;;;;;4971058;28;20126;-15
2022/05/16 13:03:41;;;;;;;7.93;3.80;;;22.30;62.10;;;;;;4972818;28;20070;-15
2022/05/16 13:06:26;;;;;;;3.35;3.10;;;22.40;62.10;;;;;;5005745;28;20039;-16
2022/05/16 13:08:56;;;;;;;3.38;3.17;;;22.40;62.30;;;;;;4975439;28;20035;-15
2022/05/16 13:11:26;;;;;;;7.07;3.78;;;22.30;62.70;;;;;;4976039;28;20046;-15
2022/05/16 13:13:56;;;;;;;4.30;3.90;;;22.30;62.90;;;;;;4974461;28;20051;-15
2022/05/16 13:16:31;;;;;;;6.93;4.28;;;22.40;63.10;;;;;;4974569;28;20050;-16
2022/05/16 13:19:17;;;;;;;5.57;4.32;;;22.40;62.80;;;;;;4969895;28;20464;-16
2022/05/16 13:22:06;;;;;;;7.70;4.40;;;22.50;62.90;;;;;;4956752;28;20042;-16
2022/05/16 13:24:32;;;;;;;4.65;3.83;;;22.50;63.00;;;;;;4967534;28;20046;-15
2022/05/16 13:29:45;;;;;;;10.98;5.63;;;22.50;62.80;;;;;;4973057;28;20046;-15
2022/05/16 13:32:17;;;;;;;9.88;4.95;;;22.50;62.70;;;;;;4975134;28;20039;-16
2022/05/16 13:34:52;;;;;;;19.00;5.82;;;22.50;63.30;;;;;;4973704;28;20102;-16
2022/05/16 13:37:20;;;;;;;7.65;5.68;;;22.50;62.80;;;;;;4974299;28;20420;-16